sensor_id;sensor_type;location;lat;lon;timestamp;pressure;altitude;pressure_sealevel;temperature;humidity
32933;BME280;19444;50.518;10.870;2023-04-26T00:02:20;96470.28;;;2.92;100.00
32933;BME280;19444;50.518;10.870;2023-04-26T00:05:17;96466.56;;;2.82;100.00
32933;BME280;19444;50.518;10.870;2023-04-26T00:08:15;96474.41;;;2.15;100.00
32933;BME280;19444;50.518;10.870;2023-04-26T00:11:11;96480.34;;;2.90;100.00
32933;BME280;19444;50.518;10.870;2023-04-26T00:14:09;96488.28;;;2.37;100.00
32933;BME280;19444;50.518;10.870;2023-04-26T00:17:06;96488.59;;;2.46;100.00
32933;BME280;19444;50.518;10.870;2023-04-26T00:20:03;96490.22;;;2.52;100.00
32933;BME280;19444;50.518;10.870;2023-04-26T00:23:02;96499.06;;;2.73;100.00
32933;BME280;19444;50.518;10.870;2023-04-26T00:26:00;96491.06;;;2.63;100.00
32933;BME280;19444;50.518;10.870;2023-04-26T00:28:56;96492.16;;;2.67;100.00
32933;BME280;19444;50.518;10.870;2023-04-26T00:31:53;96496.09;;;2.59;100.00
32933;BME280;19444;50.518;10.870;2023-04-26T00:34:50;96492.00;;;2.83;100.00
32933;BME280;19444;50.518;10.870;2023-04-26T00:37:47;96488.03;;;2.86;100.00
32933;BME280;19444;50.518;10.870;2023-04-26T00:40:44;96502.13;;;2.54;100.00
32933;BME280;19444;50.518;10.870;2023-04-26T00:43:41;96487.03;;;3.02;100.00
32933;BME280;19444;50.518;10.870;2023-04-26T00:46:38;96494.69;;;2.99;100.00
32933;BME280;19444;50.518;10.870;2023-04-26T00:49:35;96489.53;;;2.67;100.00
32933;BME280;19444;50.518;10.870;2023-04-26T00:52:32;96490.03;;;2.64;100.00
32933;BME280;19444;50.518;10.870;2023-04-26T00:55:29;96485.69;;;3.00;100.00
32933;BME280;19444;50.518;10.870;2023-04-26T00:58:26;96492.97;;;2.72;100.00
32933;BME280;19444;50.518;10.870;2023-04-26T01:01:23;96498.78;;;2.69;100.00
32933;BME280;19444;50.518;10.870;2023-04-26T01:04:20;96497.28;;;2.83;100.00
32933;BME280;19444;50.518;10.870;2023-04-26T01:07:22;96489.91;;;2.96;100.00
32933;BME280;19444;50.518;10.870;2023-04-26T01:10:19;96491.59;;;3.27;100.00
32933;BME280;19444;50.518;10.870;2023-04-26T01:13:16;96500.00;;;3.04;100.00
32933;BME280;19444;50.518;10.870;2023-04-26T01:16:14;96497.44;;;3.29;100.00
32933;BME280;19444;50.518;10.870;2023-04-26T01:19:12;96497.19;;;2.68;100.00
32933;BME280;19444;50.518;10.870;2023-04-26T01:22:09;96502.50;;;2.73;100.00
32933;BME280;19444;50.518;10.870;2023-04-26T01:25:06;96500.41;;;2.75;100.00
32933;BME280;19444;50.518;10.870;2023-04-26T01:28:04;96493.81;;;2.78;100.00
32933;BME280;19444;50.518;10.870;2023-04-26T01:31:01;96501.88;;;3.08;100.00
32933;BME280;19444;50.518;10.870;2023-04-26T01:33:58;96493.44;;;3.22;100.00
32933;BME280;19444;50.518;10.870;2023-04-26T01:36:55;96503.97;;;3.06;100.00
32933;BME280;19444;50.518;10.870;2023-04-26T01:39:52;96496.72;;;2.81;100.00
32933;BME280;19444;50.518;10.870;2023-04-26T01:42:49;96494.06;;;2.76;100.00
32933;BME280;19444;50.518;10.870;2023-04-26T01:45:48;96496.56;;;2.51;100.00
32933;BME280;19444;50.518;10.870;2023-04-26T01:48:45;96501.91;;;2.61;100.00
32933;BME280;19444;50.518;10.870;2023-04-26T01:51:42;96497.28;;;2.83;100.00
32933;BME280;19444;50.518;10.870;2023-04-26T01:54:39;96503.34;;;2.37;100.00
32933;BME280;19444;50.518;10.870;2023-04-26T01:57:36;96498.03;;;2.32;100.00
32933;BME280;19444;50.518;10.870;2023-04-26T02:00:33;96499.44;;;2.07;100.00
32933;BME280;19444;50.518;10.870;2023-04-26T02:03:30;96506.16;;;2.20;100.00
32933;BME280;19444;50.518;10.870;2023-04-26T02:06:27;96497.25;;;2.31;100.00
32933;BME280;19444;50.518;10.870;2023-04-26T02:09:24;96504.91;;;1.95;100.00
32933;BME280;19444;50.518;10.870;2023-04-26T02:12:21;96503.72;;;2.13;100.00
32933;BME280;19444;50.518;10.870;2023-04-26T02:15:18;96502.41;;;2.16;100.00
32933;BME280;19444;50.518;10.870;2023-04-26T02:18:15;96498.91;;;2.05;100.00
32933;BME280;19444;50.518;10.870;2023-04-26T02:21:15;96495.59;;;2.20;100.00
32933;BME280;19444;50.518;10.870;2023-04-26T02:24:13;96498.56;;;1.96;100.00
32933;BME280;19444;50.518;10.870;2023-04-26T02:27:09;96511.19;;;1.84;100.00
32933;BME280;19444;50.518;10.870;2023-04-26T02:30:07;96505.19;;;1.99;100.00
32933;BME280;19444;50.518;10.870;2023-04-26T02:33:05;96502.44;;;1.84;100.00
32933;BME280;19444;50.518;10.870;2023-04-26T02:36:03;96493.06;;;1.71;100.00
32933;BME280;19444;50.518;10.870;2023-04-26T02:39:01;96494.28;;;1.58;100.00
32933;BME280;19444;50.518;10.870;2023-04-26T02:41:59;96506.09;;;1.78;100.00
32933;BME280;19444;50.518;10.870;2023-04-26T02:44:56;96491.63;;;1.85;100.00
32933;BME280;19444;50.518;10.870;2023-04-26T02:47:52;96493.16;;;1.81;100.00
32933;BME280;19444;50.518;10.870;2023-04-26T02:50:49;96496.03;;;1.48;100.00
32933;BME280;19444;50.518;10.870;2023-04-26T02:53:46;96497.56;;;1.70;100.00
32933;BME280;19444;50.518;10.870;2023-04-26T02:56:43;96498.72;;;2.12;100.00
32933;BME280;19444;50.518;10.870;2023-04-26T02:59:40;96510.06;;;1.80;100.00
32933;BME280;19444;50.518;10.870;2023-04-26T03:02:37;96509.13;;;1.64;100.00
32933;BME280;19444;50.518;10.870;2023-04-26T03:05:34;96508.94;;;1.71;100.00
32933;BME280;19444;50.518;10.870;2023-04-26T03:08:31;96501.72;;;1.61;100.00
32933;BME280;19444;50.518;10.870;2023-04-26T03:11:30;96504.00;;;1.26;100.00
32933;BME280;19444;50.518;10.870;2023-04-26T03:14:27;96507.69;;;1.25;100.00
32933;BME280;19444;50.518;10.870;2023-04-26T03:17:24;96506.41;;;1.05;100.00
32933;BME280;19444;50.518;10.870;2023-04-26T03:20:21;96502.59;;;1.18;100.00
32933;BME280;19444;50.518;10.870;2023-04-26T03:23:18;96499.81;;;1.30;100.00
32933;BME280;19444;50.518;10.870;2023-04-26T03:26:15;96506.28;;;1.44;100.00
32933;BME280;19444;50.518;10.870;2023-04-26T03:29:12;96507.63;;;1.20;100.00
32933;BME280;19444;50.518;10.870;2023-04-26T03:32:09;96513.66;;;1.15;100.00
32933;BME280;19444;50.518;10.870;2023-04-26T03:35:07;96513.22;;;1.23;100.00
32933;BME280;19444;50.518;10.870;2023-04-26T03:38:04;96512.53;;;1.33;100.00
32933;BME280;19444;50.518;10.870;2023-04-26T03:41:01;96512.41;;;1.23;100.00
32933;BME280;19444;50.518;10.870;2023-04-26T03:43:57;96517.09;;;1.42;100.00
32933;BME280;19444;50.518;10.870;2023-04-26T03:46:54;96524.03;;;1.22;100.00
32933;BME280;19444;50.518;10.870;2023-04-26T03:49:52;96521.19;;;1.28;100.00
32933;BME280;19444;50.518;10.870;2023-04-26T03:52:48;96527.44;;;1.00;100.00
32933;BME280;19444;50.518;10.870;2023-04-26T03:55:45;96532.47;;;1.24;100.00
32933;BME280;19444;50.518;10.870;2023-04-26T03:58:42;96537.88;;;0.90;100.00
32933;BME280;19444;50.518;10.870;2023-04-26T04:01:39;96540.84;;;1.16;100.00
32933;BME280;19444;50.518;10.870;2023-04-26T04:04:36;96540.59;;;0.95;100.00
32933;BME280;19444;50.518;10.870;2023-04-26T04:07:34;96541.91;;;1.41;100.00
32933;BME280;19444;50.518;10.870;2023-04-26T04:10:30;96542.28;;;1.77;100.00
32933;BME280;19444;50.518;10.870;2023-04-26T04:13:27;96540.00;;;1.59;100.00
32933;BME280;19444;50.518;10.870;2023-04-26T04:16:24;96544.00;;;1.18;100.00
32933;BME280;19444;50.518;10.870;2023-04-26T04:19:21;96534.09;;;1.03;100.00
32933;BME280;19444;50.518;10.870;2023-04-26T04:22:18;96536.13;;;1.71;100.00
32933;BME280;19444;50.518;10.870;2023-04-26T04:25:16;96533.03;;;1.26;100.00
32933;BME280;19444;50.518;10.870;2023-04-26T04:28:15;96543.16;;;1.34;100.00
32933;BME280;19444;50.518;10.870;2023-04-26T04:31:13;96544.28;;;1.65;100.00
32933;BME280;19444;50.518;10.870;2023-04-26T04:34:10;96538.56;;;1.24;100.00
32933;BME280;19444;50.518;10.870;2023-04-26T04:37:07;96541.22;;;1.51;100.00
32933;BME280;19444;50.518;10.870;2023-04-26T04:40:05;96549.09;;;1.46;100.00
32933;BME280;19444;50.518;10.870;2023-04-26T04:43:02;96544.63;;;1.25;100.00
32933;BME280;19444;50.518;10.870;2023-04-26T04:45:59;96542.38;;;1.60;100.00
32933;BME280;19444;50.518;10.870;2023-04-26T04:48:56;96545.91;;;1.71;100.00
32933;BME280;19444;50.518;10.870;2023-04-26T04:51:53;96554.50;;;1.34;100.00
32933;BME280;19444;50.518;10.870;2023-04-26T04:54:49;96554.50;;;1.34;100.00
32933;BME280;19444;50.518;10.870;2023-04-26T04:57:46;96548.41;;;1.29;100.00
32933;BME280;19444;50.518;10.870;2023-04-26T05:00:43;96551.28;;;1.54;100.00
32933;BME280;19444;50.518;10.870;2023-04-26T05:03:41;96547.75;;;1.70;100.00
32933;BME280;19444;50.518;10.870;2023-04-26T05:06:38;96554.78;;;1.60;100.00
32933;BME280;19444;50.518;10.870;2023-04-26T05:09:35;96553.38;;;1.79;100.00
32933;BME280;19444;50.518;10.870;2023-04-26T05:12:32;96552.88;;;1.82;100.00
32933;BME280;19444;50.518;10.870;2023-04-26T05:15:30;96556.72;;;1.69;100.00
32933;BME280;19444;50.518;10.870;2023-04-26T05:18:27;96556.69;;;2.23;100.00
32933;BME280;19444;50.518;10.870;2023-04-26T05:21:24;96560.94;;;1.92;100.00
32933;BME280;19444;50.518;10.870;2023-04-26T05:24:21;96556.41;;;2.57;100.00
32933;BME280;19444;50.518;10.870;2023-04-26T05:27:18;96558.94;;;2.42;100.00
32933;BME280;19444;50.518;10.870;2023-04-26T05:30:15;96564.16;;;2.32;100.00
32933;BME280;19444;50.518;10.870;2023-04-26T05:33:12;96565.66;;;2.60;100.00
32933;BME280;19444;50.518;10.870;2023-04-26T05:36:09;96559.47;;;2.86;100.00
32933;BME280;19444;50.518;10.870;2023-04-26T05:39:06;96572.81;;;2.27;100.00
32933;BME280;19444;50.518;10.870;2023-04-26T05:42:04;96583.84;;;2.14;100.00
32933;BME280;19444;50.518;10.870;2023-04-26T05:45:01;96571.94;;;2.48;100.00
32933;BME280;19444;50.518;10.870;2023-04-26T05:47:57;96581.00;;;2.58;100.00
32933;BME280;19444;50.518;10.870;2023-04-26T05:50:55;96584.72;;;2.62;100.00
32933;BME280;19444;50.518;10.870;2023-04-26T05:53:51;96590.06;;;2.67;100.00
32933;BME280;19444;50.518;10.870;2023-04-26T05:56:49;96593.19;;;2.64;100.00
32933;BME280;19444;50.518;10.870;2023-04-26T05:59:46;96586.53;;;2.98;100.00
32933;BME280;19444;50.518;10.870;2023-04-26T06:02:43;96595.22;;;2.89;100.00
32933;BME280;19444;50.518;10.870;2023-04-26T06:05:41;96587.06;;;2.95;100.00
32933;BME280;19444;50.518;10.870;2023-04-26T06:08:38;96582.63;;;3.06;100.00
32933;BME280;19444;50.518;10.870;2023-04-26T06:11:35;96587.81;;;2.91;100.00
32933;BME280;19444;50.518;10.870;2023-04-26T06:14:32;96587.09;;;3.05;100.00
32933;BME280;19444;50.518;10.870;2023-04-26T06:17:29;96589.50;;;3.07;100.00
32933;BME280;19444;50.518;10.870;2023-04-26T06:20:26;96583.50;;;3.27;100.00
32933;BME280;19444;50.518;10.870;2023-04-26T06:23:23;96586.59;;;3.76;100.00
32933;BME280;19444;50.518;10.870;2023-04-26T06:26:20;96586.13;;;4.55;100.00
32933;BME280;19444;50.518;10.870;2023-04-26T06:29:17;96585.81;;;3.91;100.00
32933;BME280;19444;50.518;10.870;2023-04-26T06:32:14;96585.59;;;4.13;100.00
32933;BME280;19444;50.518;10.870;2023-04-26T06:35:11;96583.75;;;4.34;100.00
32933;BME280;19444;50.518;10.870;2023-04-26T06:38:08;96585.06;;;4.56;100.00
32933;BME280;19444;50.518;10.870;2023-04-26T06:41:05;96581.34;;;4.63;100.00
32933;BME280;19444;50.518;10.870;2023-04-26T06:44:02;96593.56;;;4.59;100.00
32933;BME280;19444;50.518;10.870;2023-04-26T06:46:59;96580.56;;;4.67;100.00
32933;BME280;19444;50.518;10.870;2023-04-26T06:49:55;96574.94;;;4.89;100.00
32933;BME280;19444;50.518;10.870;2023-04-26T06:52:52;96577.00;;;5.02;100.00
32933;BME280;19444;50.518;10.870;2023-04-26T06:55:49;96576.91;;;5.38;100.00
32933;BME280;19444;50.518;10.870;2023-04-26T06:59:03;96577.84;;;4.82;100.00
32933;BME280;19444;50.518;10.870;2023-04-26T07:02:00;96572.88;;;5.46;100.00
32933;BME280;19444;50.518;10.870;2023-04-26T07:04:58;96570.88;;;5.22;100.00
32933;BME280;19444;50.518;10.870;2023-04-26T07:07:55;96576.84;;;5.53;100.00
32933;BME280;19444;50.518;10.870;2023-04-26T07:10:52;96580.66;;;5.91;100.00
32933;BME280;19444;50.518;10.870;2023-04-26T07:13:51;96589.16;;;5.34;100.00
32933;BME280;19444;50.518;10.870;2023-04-26T07:16:48;96594.56;;;4.83;100.00
32933;BME280;19444;50.518;10.870;2023-04-26T07:19:45;96582.06;;;4.94;100.00
32933;BME280;19444;50.518;10.870;2023-04-26T07:22:42;96574.03;;;5.24;100.00
32933;BME280;19444;50.518;10.870;2023-04-26T07:25:39;96575.88;;;5.83;100.00
32933;BME280;19444;50.518;10.870;2023-04-26T07:28:36;96585.78;;;5.72;100.00
32933;BME280;19444;50.518;10.870;2023-04-26T07:31:33;96568.97;;;5.82;100.00
32933;BME280;19444;50.518;10.870;2023-04-26T07:34:30;96575.44;;;5.66;100.00
32933;BME280;19444;50.518;10.870;2023-04-26T07:37:27;96589.25;;;4.93;100.00
32933;BME280;19444;50.518;10.870;2023-04-26T07:40:24;96584.91;;;5.33;100.00
32933;BME280;19444;50.518;10.870;2023-04-26T07:43:22;96577.81;;;5.13;100.00
32933;BME280;19444;50.518;10.870;2023-04-26T07:46:19;96573.38;;;5.58;97.49
32933;BME280;19444;50.518;10.870;2023-04-26T07:49:16;96569.72;;;6.66;89.95
32933;BME280;19444;50.518;10.870;2023-04-26T07:52:13;96567.38;;;6.60;78.37
32933;BME280;19444;50.518;10.870;2023-04-26T07:55:10;96570.47;;;6.72;79.57
32933;BME280;19444;50.518;10.870;2023-04-26T07:58:07;96573.00;;;6.24;82.92
32933;BME280;19444;50.518;10.870;2023-04-26T08:01:05;96576.69;;;6.62;81.72
32933;BME280;19444;50.518;10.870;2023-04-26T08:04:02;96578.81;;;7.13;74.83
32933;BME280;19444;50.518;10.870;2023-04-26T08:07:00;96580.31;;;6.71;78.37
32933;BME280;19444;50.518;10.870;2023-04-26T08:09:57;96592.34;;;5.95;90.24
32933;BME280;19444;50.518;10.870;2023-04-26T08:12:54;96594.50;;;6.96;84.47
32933;BME280;19444;50.518;10.870;2023-04-26T08:15:53;96590.03;;;6.23;94.53
32933;BME280;19444;50.518;10.870;2023-04-26T08:18:49;96598.03;;;6.86;88.38
32933;BME280;19444;50.518;10.870;2023-04-26T08:21:46;96595.31;;;6.62;90.63
32933;BME280;19444;50.518;10.870;2023-04-26T08:24:51;96594.13;;;9.42;61.44
32933;BME280;19444;50.518;10.870;2023-04-26T08:27:48;96583.56;;;8.07;61.00
32933;BME280;19444;50.518;10.870;2023-04-26T08:30:45;96601.03;;;7.75;61.31
32933;BME280;19444;50.518;10.870;2023-04-26T08:33:42;96612.56;;;6.70;71.07
32933;BME280;19444;50.518;10.870;2023-04-26T08:36:40;96602.84;;;6.84;75.25
32933;BME280;19444;50.518;10.870;2023-04-26T08:39:40;96605.19;;;6.91;80.03
32933;BME280;19444;50.518;10.870;2023-04-26T08:42:41;96599.66;;;6.82;86.28
32933;BME280;19444;50.518;10.870;2023-04-26T08:45:40;96602.41;;;7.01;78.20
32933;BME280;19444;50.518;10.870;2023-04-26T08:48:39;96606.06;;;7.58;76.93
32933;BME280;19444;50.518;10.870;2023-04-26T08:51:36;96590.47;;;10.51;58.70
32933;BME280;19444;50.518;10.870;2023-04-26T08:54:34;96581.63;;;11.04;54.94
32933;BME280;19444;50.518;10.870;2023-04-26T08:57:32;96587.59;;;9.62;54.33
32933;BME280;19444;50.518;10.870;2023-04-26T09:00:29;96585.59;;;8.66;55.94
32933;BME280;19444;50.518;10.870;2023-04-26T09:03:27;96598.69;;;8.11;59.07
32933;BME280;19444;50.518;10.870;2023-04-26T09:06:24;96586.88;;;8.36;55.94
32933;BME280;19444;50.518;10.870;2023-04-26T09:09:25;96586.13;;;8.31;57.93
32933;BME280;19444;50.518;10.870;2023-04-26T09:12:25;96585.13;;;8.26;61.42
32933;BME280;19444;50.518;10.870;2023-04-26T09:15:25;96590.97;;;8.80;62.08
32933;BME280;19444;50.518;10.870;2023-04-26T09:18:22;96575.97;;;9.66;50.27
32933;BME280;19444;50.518;10.870;2023-04-26T09:21:19;96572.44;;;11.28;49.54
32933;BME280;19444;50.518;10.870;2023-04-26T09:24:16;96581.09;;;7.91;53.59
32933;BME280;19444;50.518;10.870;2023-04-26T09:27:14;96578.19;;;8.25;55.36
32933;BME280;19444;50.518;10.870;2023-04-26T09:30:16;96584.09;;;7.66;54.04
32933;BME280;19444;50.518;10.870;2023-04-26T09:33:14;96591.16;;;7.76;67.67
32933;BME280;19444;50.518;10.870;2023-04-26T09:36:12;96590.28;;;7.61;59.47
32933;BME280;19444;50.518;10.870;2023-04-26T09:39:09;96596.97;;;7.59;65.20
32933;BME280;19444;50.518;10.870;2023-04-26T09:42:08;96588.59;;;7.89;61.95
32933;BME280;19444;50.518;10.870;2023-04-26T09:45:06;96593.09;;;8.64;59.44
32933;BME280;19444;50.518;10.870;2023-04-26T09:48:26;96586.72;;;8.27;54.87
32933;BME280;19444;50.518;10.870;2023-04-26T09:51:26;96592.25;;;8.31;55.96
32933;BME280;19444;50.518;10.870;2023-04-26T09:54:57;96584.03;;;9.25;55.39
32933;BME280;19444;50.518;10.870;2023-04-26T09:57:55;96588.09;;;10.00;49.97
32933;BME280;19444;50.518;10.870;2023-04-26T10:00:54;96571.25;;;10.00;46.95
32933;BME280;19444;50.518;10.870;2023-04-26T10:03:51;96593.94;;;9.25;51.24
32933;BME280;19444;50.518;10.870;2023-04-26T10:06:48;96601.44;;;8.44;51.28
32933;BME280;19444;50.518;10.870;2023-04-26T10:09:46;96583.88;;;8.89;52.79
32933;BME280;19444;50.518;10.870;2023-04-26T10:12:43;96591.75;;;9.27;52.07
32933;BME280;19444;50.518;10.870;2023-04-26T10:15:41;96594.22;;;8.44;52.25
32933;BME280;19444;50.518;10.870;2023-04-26T10:18:38;96587.56;;;9.48;51.76
32933;BME280;19444;50.518;10.870;2023-04-26T10:21:38;96592.31;;;9.10;51.16
32933;BME280;19444;50.518;10.870;2023-04-26T10:24:36;96595.16;;;8.53;53.04
32933;BME280;19444;50.518;10.870;2023-04-26T10:30:59;96570.75;;;10.78;49.42
32933;BME280;19444;50.518;10.870;2023-04-26T10:34:19;96570.75;;;9.61;46.06
32933;BME280;19444;50.518;10.870;2023-04-26T10:37:16;96576.28;;;9.24;48.02
32933;BME280;19444;50.518;10.870;2023-04-26T10:43:28;96575.19;;;9.52;48.64
32933;BME280;19444;50.518;10.870;2023-04-26T10:46:39;96566.66;;;9.64;49.47
32933;BME280;19444;50.518;10.870;2023-04-26T10:49:44;96583.06;;;9.98;54.33
32933;BME280;19444;50.518;10.870;2023-04-26T10:55:59;96576.94;;;9.84;51.14
32933;BME280;19444;50.518;10.870;2023-04-26T10:59:20;96570.03;;;9.56;48.05
32933;BME280;19444;50.518;10.870;2023-04-26T11:02:51;96576.63;;;10.00;48.66
32933;BME280;19444;50.518;10.870;2023-04-26T11:05:53;96568.13;;;9.84;47.86
32933;BME280;19444;50.518;10.870;2023-04-26T11:08:52;96561.66;;;10.21;46.12
32933;BME280;19444;50.518;10.870;2023-04-26T11:11:50;96551.13;;;10.92;52.78
32933;BME280;19444;50.518;10.870;2023-04-26T11:14:52;96542.31;;;12.14;48.48
32933;BME280;19444;50.518;10.870;2023-04-26T11:17:49;96545.41;;;11.73;50.74
32933;BME280;19444;50.518;10.870;2023-04-26T11:20:46;96549.13;;;9.72;44.55
32933;BME280;19444;50.518;10.870;2023-04-26T11:23:53;96555.81;;;9.83;46.54
32933;BME280;19444;50.518;10.870;2023-04-26T11:26:50;96538.50;;;11.89;47.40
32933;BME280;19444;50.518;10.870;2023-04-26T11:29:48;96539.72;;;11.74;45.13
32933;BME280;19444;50.518;10.870;2023-04-26T11:32:45;96534.31;;;11.57;47.27
32933;BME280;19444;50.518;10.870;2023-04-26T11:35:42;96531.22;;;10.53;44.42
32933;BME280;19444;50.518;10.870;2023-04-26T11:38:39;96530.59;;;12.53;49.98
32933;BME280;19444;50.518;10.870;2023-04-26T11:41:36;96525.66;;;11.11;43.56
32933;BME280;19444;50.518;10.870;2023-04-26T11:44:33;96524.66;;;10.99;42.15
32933;BME280;19444;50.518;10.870;2023-04-26T11:47:30;96518.09;;;12.57;39.91
32933;BME280;19444;50.518;10.870;2023-04-26T11:50:30;96535.22;;;10.42;41.33
32933;BME280;19444;50.518;10.870;2023-04-26T11:53:38;96521.88;;;12.65;46.81
32933;BME280;19444;50.518;10.870;2023-04-26T11:56:36;96522.09;;;11.99;40.68
32933;BME280;19444;50.518;10.870;2023-04-26T11:59:33;96524.00;;;12.07;46.22
32933;BME280;19444;50.518;10.870;2023-04-26T12:02:30;96527.84;;;10.70;41.27
32933;BME280;19444;50.518;10.870;2023-04-26T12:05:28;96531.22;;;10.53;46.78
32933;BME280;19444;50.518;10.870;2023-04-26T12:08:28;96533.22;;;10.78;43.85
32933;BME280;19444;50.518;10.870;2023-04-26T12:11:25;96527.94;;;10.96;46.47
32933;BME280;19444;50.518;10.870;2023-04-26T12:14:22;96520.25;;;11.60;45.20
32933;BME280;19444;50.518;10.870;2023-04-26T12:17:19;96517.00;;;11.98;41.66
32933;BME280;19444;50.518;10.870;2023-04-26T12:20:17;96526.34;;;12.26;43.31
32933;BME280;19444;50.518;10.870;2023-04-26T12:23:16;96518.44;;;12.38;44.14
32933;BME280;19444;50.518;10.870;2023-04-26T12:26:13;96520.66;;;12.45;43.36
32933;BME280;19444;50.518;10.870;2023-04-26T12:29:10;96524.22;;;11.62;41.38
32933;BME280;19444;50.518;10.870;2023-04-26T12:32:07;96510.38;;;12.12;47.45
32933;BME280;19444;50.518;10.870;2023-04-26T12:35:04;96510.84;;;12.40;41.75
32933;BME280;19444;50.518;10.870;2023-04-26T12:38:02;96525.34;;;13.12;41.15
32933;BME280;19444;50.518;10.870;2023-04-26T12:40:59;96510.44;;;14.45;37.96
32933;BME280;19444;50.518;10.870;2023-04-26T12:43:56;96510.66;;;14.52;34.39
32933;BME280;19444;50.518;10.870;2023-04-26T12:46:54;96516.78;;;13.57;35.06
32933;BME280;19444;50.518;10.870;2023-04-26T12:49:50;96518.09;;;12.40;46.05
32933;BME280;19444;50.518;10.870;2023-04-26T12:52:48;96515.63;;;12.17;39.59
32933;BME280;19444;50.518;10.870;2023-04-26T12:55:44;96518.38;;;13.79;45.98
32933;BME280;19444;50.518;10.870;2023-04-26T12:58:41;96518.59;;;12.24;39.27
32933;BME280;19444;50.518;10.870;2023-04-26T13:01:38;96516.47;;;13.79;41.15
32933;BME280;19444;50.518;10.870;2023-04-26T13:04:35;96524.56;;;13.50;41.92
32933;BME280;19444;50.518;10.870;2023-04-26T13:07:41;96508.91;;;14.56;38.21
32933;BME280;19444;50.518;10.870;2023-04-26T13:10:38;96508.44;;;13.12;38.26
32933;BME280;19444;50.518;10.870;2023-04-26T13:13:35;96520.59;;;13.18;37.43
32933;BME280;19444;50.518;10.870;2023-04-26T13:16:39;96516.00;;;13.77;36.16
32933;BME280;19444;50.518;10.870;2023-04-26T13:19:39;96508.44;;;14.33;38.29
32933;BME280;19444;50.518;10.870;2023-04-26T13:22:36;96516.41;;;12.99;37.06
32933;BME280;19444;50.518;10.870;2023-04-26T13:25:34;96511.53;;;13.60;38.27
32933;BME280;19444;50.518;10.870;2023-04-26T13:28:31;96511.28;;;13.95;38.43
32933;BME280;19444;50.518;10.870;2023-04-26T13:31:28;96509.13;;;13.88;41.23
32933;BME280;19444;50.518;10.870;2023-04-26T13:34:26;96493.94;;;15.16;37.21
32933;BME280;19444;50.518;10.870;2023-04-26T13:37:22;96502.81;;;13.84;36.35
32933;BME280;19444;50.518;10.870;2023-04-26T13:40:19;96504.53;;;14.43;40.49
32933;BME280;19444;50.518;10.870;2023-04-26T13:43:18;96511.63;;;14.14;36.59
32933;BME280;19444;50.518;10.870;2023-04-26T13:46:15;96518.53;;;12.59;36.53
32933;BME280;19444;50.518;10.870;2023-04-26T13:49:12;96505.41;;;13.22;36.48
32933;BME280;19444;50.518;10.870;2023-04-26T13:52:10;96497.94;;;15.96;42.04
32933;BME280;19444;50.518;10.870;2023-04-26T13:55:07;96499.22;;;15.49;34.30
32933;BME280;19444;50.518;10.870;2023-04-26T13:58:04;96497.88;;;14.28;36.40
32933;BME280;19444;50.518;10.870;2023-04-26T14:01:02;96501.59;;;14.57;41.68
32933;BME280;19444;50.518;10.870;2023-04-26T14:03:59;96522.06;;;11.16;38.40
32933;BME280;19444;50.518;10.870;2023-04-26T14:06:57;96502.13;;;13.07;45.35
32933;BME280;19444;50.518;10.870;2023-04-26T14:09:54;96511.72;;;12.62;38.82
32933;BME280;19444;50.518;10.870;2023-04-26T14:12:51;96506.34;;;12.70;37.79
32933;BME280;19444;50.518;10.870;2023-04-26T14:15:48;96498.28;;;13.17;37.39
32933;BME280;19444;50.518;10.870;2023-04-26T14:18:45;96500.91;;;13.85;38.64
32933;BME280;19444;50.518;10.870;2023-04-26T14:21:42;96507.34;;;13.04;40.22
32933;BME280;19444;50.518;10.870;2023-04-26T14:24:39;96509.31;;;12.86;39.65
32933;BME280;19444;50.518;10.870;2023-04-26T14:27:37;96512.69;;;13.13;36.27
32933;BME280;19444;50.518;10.870;2023-04-26T14:30:35;96508.66;;;12.16;37.88
32933;BME280;19444;50.518;10.870;2023-04-26T14:33:31;96497.09;;;12.33;37.93
32933;BME280;19444;50.518;10.870;2023-04-26T14:36:28;96490.19;;;14.18;37.55
32933;BME280;19444;50.518;10.870;2023-04-26T14:39:26;96508.75;;;12.63;36.76
32933;BME280;19444;50.518;10.870;2023-04-26T14:42:23;96504.63;;;13.13;36.28
32933;BME280;19444;50.518;10.870;2023-04-26T14:45:20;96488.66;;;15.56;36.39
32933;BME280;19444;50.518;10.870;2023-04-26T14:48:29;96492.81;;;16.18;32.57
32933;BME280;19444;50.518;10.870;2023-04-26T14:51:26;96493.03;;;15.00;36.48
32933;BME280;19444;50.518;10.870;2023-04-26T14:54:23;96484.25;;;15.15;33.04
32933;BME280;19444;50.518;10.870;2023-04-26T14:57:20;96499.31;;;15.16;36.74
32933;BME280;19444;50.518;10.870;2023-04-26T15:00:18;96500.13;;;14.05;41.84
32933;BME280;19444;50.518;10.870;2023-04-26T15:03:15;96505.81;;;12.94;40.55
32933;BME280;19444;50.518;10.870;2023-04-26T15:06:12;96500.19;;;13.17;39.97
32933;BME280;19444;50.518;10.870;2023-04-26T15:09:09;96506.06;;;13.48;41.70
32933;BME280;19444;50.518;10.870;2023-04-26T15:12:07;96508.72;;;13.19;37.52
32933;BME280;19444;50.518;10.870;2023-04-26T15:15:04;96493.00;;;13.80;35.65
32933;BME280;19444;50.518;10.870;2023-04-26T15:18:02;96504.63;;;13.13;38.08
32933;BME280;19444;50.518;10.870;2023-04-26T15:20:59;96501.34;;;12.34;37.58
32933;BME280;19444;50.518;10.870;2023-04-26T15:23:56;96495.56;;;12.79;38.20
32933;BME280;19444;50.518;10.870;2023-04-26T15:26:53;96491.03;;;13.09;36.61
32933;BME280;19444;50.518;10.870;2023-04-26T15:29:50;96486.22;;;14.69;38.06
32933;BME280;19444;50.518;10.870;2023-04-26T15:32:47;96482.44;;;13.54;35.56
32933;BME280;19444;50.518;10.870;2023-04-26T15:35:45;96489.66;;;12.30;38.83
32933;BME280;19444;50.518;10.870;2023-04-26T15:38:42;96483.84;;;12.28;38.62
32933;BME280;19444;50.518;10.870;2023-04-26T15:41:41;96484.06;;;13.46;36.75
32933;BME280;19444;50.518;10.870;2023-04-26T15:44:37;96488.28;;;13.77;43.19